Time;durP1;ratioP1;P1;durP2;ratioP2;P2;SDS_P1;SDS_P2;PMS_P1;PMS_P2;Temp;Humidity;BMP_temperature;BMP_pressure;BME280_temperature;BME280_humidity;BME280_pressure;Samples;Min_cycle;Max_cycle;Signal;HPM_P1;HPM_P2
2022/01/06 00:03:49;;;;;;;3.83;1.90;;;;;;;4.09;100.00;97973.84;4193120;82;28592;-78
2022/01/06 00:09:51;;;;;;;3.85;1.85;;;;;;;4.19;100.00;97967.53;4120961;84;28506;-78
2022/01/06 00:28:14;;;;;;;4.45;2.05;;;;;;;4.48;100.00;97968.95;4144464;84;28512;-80
2022/01/06 00:34:16;;;;;;;5.17;2.00;;;;;;;4.58;100.00;97959.96;4146254;84;28569;-80
2022/01/06 00:40:22;;;;;;;6.00;2.02;;;;;;;4.68;100.00;97966.11;4143662;84;28572;-77
2022/01/06 00:46:24;;;;;;;4.33;1.57;;;;;;;4.75;100.00;97976.19;4142797;84;28589;-80
2022/01/06 00:52:25;;;;;;;3.45;1.50;;;;;;;4.72;100.00;97987.28;4147365;84;28541;-77
2022/01/06 00:58:26;;;;;;;4.00;1.42;;;;;;;4.77;100.00;97994.09;4164734;84;28565;-79
2022/01/06 01:04:27;;;;;;;4.92;1.70;;;;;;;4.72;100.00;97991.28;4170678;84;28595;-80
2022/01/06 01:10:29;;;;;;;3.30;1.30;;;;;;;4.79;100.00;97978.73;4117451;85;28509;-80
2022/01/06 01:16:32;;;;;;;3.25;1.50;;;;;;;4.85;100.00;97981.83;4106246;85;28533;-82
2022/01/06 01:22:33;;;;;;;3.65;1.35;;;;;;;4.79;100.00;97982.72;4266651;81;28585;-82
2022/01/06 01:28:43;;;;;;;5.78;1.60;;;;;;;4.74;100.00;97978.05;4275252;81;28447;-81
2022/01/06 01:34:40;;;;;;;3.12;1.50;;;;;;;4.70;100.00;97982.17;4274949;81;28540;-77
2022/01/06 01:40:40;;;;;;;4.85;1.40;;;;;;;4.74;100.00;97961.25;4274594;81;28510;-82
2022/01/06 01:46:47;;;;;;;3.58;1.20;;;;;;;4.55;100.00;97958.55;4276911;81;28541;-81
2022/01/06 01:52:52;;;;;;;5.08;1.20;;;;;;;4.54;100.00;97963.58;4266180;81;28587;-81
2022/01/06 01:58:54;;;;;;;3.52;1.40;;;;;;;4.66;100.00;97957.02;4188757;82;28521;-81
2022/01/06 02:04:55;;;;;;;3.83;1.40;;;;;;;4.70;100.00;97960.87;4195216;82;28893;-81
2022/01/06 02:10:57;;;;;;;3.33;1.20;;;;;;;4.72;100.00;97977.97;4191818;82;28522;-81
2022/01/06 02:16:58;;;;;;;4.22;1.30;;;;;;;4.56;100.00;97988.66;4194866;82;28568;-83
2022/01/06 02:22:59;;;;;;;4.97;1.30;;;;;;;4.56;100.00;97992.65;4199675;82;28533;-83
2022/01/06 02:29:00;;;;;;;4.12;1.40;;;;;;;4.51;100.00;97990.64;4114839;84;28464;-82
2022/01/06 02:35:09;;;;;;;2.85;1.27;;;;;;;4.51;100.00;97997.80;4115921;85;28483;-82
2022/01/06 02:41:10;;;;;;;2.62;1.45;;;;;;;4.46;100.00;97997.11;4106515;85;28533;-83
2022/01/06 02:47:11;;;;;;;6.05;1.82;;;;;;;4.66;100.00;98007.61;4099942;85;28545;-80
2022/01/06 02:53:16;;;;;;;6.15;1.45;;;;;;;4.64;100.00;98000.37;4114410;85;28542;-81
2022/01/06 02:59:18;;;;;;;4.10;1.70;;;;;;;4.70;100.00;97996.02;4118419;85;28525;-80
2022/01/06 03:05:19;;;;;;;2.52;1.40;;;;;;;4.76;100.00;97997.78;4086381;85;28525;-79
2022/01/06 03:11:25;;;;;;;3.47;1.32;;;;;;;4.70;100.00;97990.69;4117305;85;28545;-79
2022/01/06 03:17:24;;;;;;;3.33;1.42;;;;;;;4.77;100.00;97993.29;4101395;85;28536;-82
2022/01/06 03:23:25;;;;;;;4.75;1.40;;;;;;;4.96;100.00;97992.28;4126067;85;28539;-81
2022/01/06 03:29:26;;;;;;;4.78;1.95;;;;;;;4.96;100.00;98001.61;4112779;85;28552;-81
2022/01/06 03:35:28;;;;;;;4.30;1.45;;;;;;;4.91;100.00;97993.98;4115182;85;28591;-83
2022/01/06 03:41:29;;;;;;;5.35;1.72;;;;;;;4.87;100.00;97988.27;4118314;85;28456;-82
2022/01/06 03:47:30;;;;;;;2.85;1.30;;;;;;;4.76;100.00;98003.11;4126306;85;28509;-82
2022/01/06 03:53:31;;;;;;;3.95;1.47;;;;;;;4.90;100.00;97999.81;4117803;84;28547;-82
2022/01/06 03:59:33;;;;;;;3.30;1.50;;;;;;;4.98;100.00;97998.70;4134403;84;28532;-80
2022/01/06 04:05:34;;;;;;;5.08;1.65;;;;;;;4.88;100.00;97992.03;4152141;83;28468;-79
2022/01/06 04:11:36;;;;;;;5.20;1.77;;;;;;;4.94;100.00;98002.33;4166560;84;28545;-81
2022/01/06 04:17:38;;;;;;;4.70;1.32;;;;;;;4.96;100.00;98009.60;4139161;84;28513;-79
2022/01/06 04:23:39;;;;;;;4.30;1.32;;;;;;;5.05;100.00;98015.95;4143347;84;28487;-78
2022/01/06 04:29:40;;;;;;;4.60;1.32;;;;;;;5.06;100.00;98016.28;4167206;84;28623;-78
2022/01/06 04:35:42;;;;;;;3.47;1.30;;;;;;;5.16;100.00;98028.58;4118825;84;28593;-78
2022/01/06 04:41:45;;;;;;;4.50;1.50;;;;;;;5.13;100.00;98028.48;4139825;84;28567;-78
2022/01/06 04:47:46;;;;;;;3.87;1.50;;;;;;;5.15;100.00;98030.41;4130610;84;28541;-79
2022/01/06 04:53:47;;;;;;;3.83;1.30;;;;;;;5.06;100.00;98034.93;4146604;84;28559;-77
2022/01/06 04:59:48;;;;;;;2.58;1.30;;;;;;;5.07;100.00;98039.22;4140630;84;28624;-78
2022/01/06 05:05:49;;;;;;;2.22;1.10;;;;;;;5.05;100.00;98039.93;4172233;83;28462;-80
2022/01/06 05:11:51;;;;;;;2.72;1.30;;;;;;;5.22;100.00;98045.00;4095766;85;28574;-80
2022/01/06 05:17:52;;;;;;;6.37;1.32;;;;;;;5.16;100.00;98048.03;4175329;83;28512;-80
2022/01/06 05:23:53;;;;;;;2.67;1.40;;;;;;;5.09;100.00;98052.59;4160451;83;28559;-80
2022/01/06 05:29:54;;;;;;;5.00;1.60;;;;;;;5.16;100.00;98049.89;4103247;85;28504;-80
2022/01/06 05:35:56;;;;;;;3.42;1.60;;;;;;;5.18;100.00;98059.81;4145092;85;28520;-79
2022/01/06 05:41:57;;;;;;;2.02;1.10;;;;;;;5.33;100.00;98063.95;4123002;85;28564;-82
2022/01/06 05:47:58;;;;;;;2.50;1.12;;;;;;;5.21;100.00;98060.69;4101460;85;28503;-80
2022/01/06 05:54:00;;;;;;;3.05;1.30;;;;;;;5.20;100.00;98065.73;4121537;85;28572;-81
2022/01/06 06:00:01;;;;;;;3.00;1.15;;;;;;;5.22;100.00;98066.31;4134148;84;28528;-81
2022/01/06 06:06:04;;;;;;;2.52;1.10;;;;;;;5.33;100.00;98075.95;4121124;84;28556;-78
2022/01/06 06:12:06;;;;;;;3.98;1.85;;;;;;;5.23;100.00;98071.14;4132043;84;28563;-79
2022/01/06 06:18:12;;;;;;;2.33;1.20;;;;;;;5.18;100.00;98078.46;4127943;84;28543;-79
2022/01/06 06:24:14;;;;;;;2.62;1.00;;;;;;;5.19;100.00;98080.09;4129655;84;28532;-80
2022/01/06 06:30:16;;;;;;;3.70;1.10;;;;;;;5.34;100.00;98086.41;4135941;84;28546;-82
2022/01/06 06:36:17;;;;;;;5.10;1.40;;;;;;;5.27;100.00;98092.31;4134288;84;28531;-83
2022/01/06 06:42:18;;;;;;;6.83;1.30;;;;;;;5.28;100.00;98106.76;4133023;84;28516;-85
2022/01/06 06:48:21;;;;;;;3.58;0.90;;;;;;;5.31;100.00;98105.52;4150177;83;28543;-80
2022/01/06 06:54:23;;;;;;;2.90;1.20;;;;;;;5.35;100.00;98099.20;4158775;84;28517;-82
2022/01/06 07:00:24;;;;;;;3.35;1.30;;;;;;;5.32;100.00;98111.64;4191089;83;28547;-83
2022/01/06 07:06:26;;;;;;;4.28;1.32;;;;;;;5.28;100.00;98121.42;4188635;83;28546;-76
2022/01/06 07:12:27;;;;;;;3.70;1.30;;;;;;;5.40;100.00;98124.69;4190779;83;28566;-75
2022/01/06 07:18:28;;;;;;;3.58;1.30;;;;;;;5.30;100.00;98140.66;4190954;83;28559;-76
2022/01/06 07:24:29;;;;;;;5.20;1.65;;;;;;;5.44;100.00;98145.36;4184383;83;28536;-77
2022/01/06 07:30:33;;;;;;;2.87;1.40;;;;;;;5.56;100.00;98155.30;4185432;83;28695;-76
2022/01/06 07:36:35;;;;;;;4.28;1.50;;;;;;;5.47;100.00;98154.78;4188732;83;28562;-76
2022/01/06 07:42:36;;;;;;;4.45;1.60;;;;;;;5.33;100.00;98161.25;4181539;83;28489;-77
2022/01/06 07:48:56;;;;;;;4.67;1.90;;;;;;;5.49;100.00;98174.03;4189814;83;28593;-76
2022/01/06 07:54:58;;;;;;;5.92;1.82;;;;;;;5.40;100.00;98169.48;4188340;83;28531;-77
2022/01/06 08:01:01;;;;;;;5.30;1.80;;;;;;;5.28;100.00;98169.89;4221152;82;28500;-79
2022/01/06 08:07:03;;;;;;;5.87;1.82;;;;;;;5.49;100.00;98170.03;4233216;82;28522;-77
2022/01/06 08:13:04;;;;;;;6.00;2.30;;;;;;;5.35;100.00;98176.50;4234018;82;28480;-76
2022/01/06 08:19:06;;;;;;;5.40;1.80;;;;;;;5.12;100.00;98189.91;4227838;82;28547;-78
2022/01/06 08:25:10;;;;;;;5.03;2.08;;;;;;;5.37;100.00;98194.45;4213240;82;28945;-77
2022/01/06 08:31:13;;;;;;;6.75;2.10;;;;;;;5.37;100.00;98201.11;4221970;82;28511;-79
2022/01/06 08:37:15;;;;;;;6.08;2.60;;;;;;;5.23;100.00;98209.19;4149308;84;28540;-77
2022/01/06 08:43:16;;;;;;;5.75;2.37;;;;;;;5.33;100.00;98223.38;4138999;84;28665;-76
2022/01/06 08:49:18;;;;;;;5.67;2.10;;;;;;;5.41;100.00;98236.42;4241927;82;28566;-79
2022/01/06 08:55:19;;;;;;;4.78;2.33;;;;;;;5.53;100.00;98233.08;4208104;82;28549;-76
2022/01/06 09:01:20;;;;;;;7.05;2.50;;;;;;;5.51;100.00;98231.95;4193092;83;28535;-75
2022/01/06 09:07:25;;;;;;;5.62;2.58;;;;;;;5.41;100.00;98237.75;4199040;83;28531;-77
2022/01/06 09:13:26;;;;;;;5.25;2.50;;;;;;;5.34;100.00;98230.84;4189397;83;28591;-77
2022/01/06 09:19:28;;;;;;;6.60;2.77;;;;;;;5.61;100.00;98233.31;4176367;83;28498;-82
2022/01/06 09:25:29;;;;;;;6.60;2.62;;;;;;;5.83;100.00;98241.71;4170959;83;28524;-76
2022/01/06 09:31:31;;;;;;;7.58;2.87;;;;;;;5.82;100.00;98239.58;4190959;83;28552;-81
2022/01/06 09:37:33;;;;;;;7.60;2.55;;;;;;;6.12;100.00;98240.74;4187178;83;28539;-79
2022/01/06 09:43:36;;;;;;;5.75;2.85;;;;;;;6.27;100.00;98239.04;4190185;83;28557;-78
2022/01/06 09:49:40;;;;;;;7.35;2.85;;;;;;;6.24;100.00;98235.49;4190723;83;28539;-80
2022/01/06 09:55:41;;;;;;;7.85;3.17;;;;;;;6.09;100.00;98236.69;4189105;83;28540;-77
2022/01/06 10:01:45;;;;;;;6.12;2.37;;;;;;;6.11;100.00;98248.45;4194572;82;28534;-77
2022/01/06 10:07:46;;;;;;;8.15;2.30;;;;;;;6.24;100.00;98235.49;4206586;82;28573;-78
2022/01/06 10:14:09;;;;;;;5.17;2.30;;;;;;;6.30;100.00;98236.45;4193038;82;28617;-80
2022/01/06 10:20:12;;;;;;;4.95;2.30;;;;;;;6.33;100.00;98248.02;4189370;82;28543;-84
2022/01/06 10:26:14;;;;;;;8.23;2.50;;;;;;;6.28;100.00;98250.84;4193167;82;28518;-79
2022/01/06 10:32:25;;;;;;;6.33;2.45;;;;;;;6.23;100.00;98253.89;4205472;82;28522;-76
2022/01/06 10:38:27;;;;;;;4.55;2.22;;;;;;;6.47;100.00;98250.84;4178334;82;28562;-76
2022/01/06 10:44:30;;;;;;;7.15;2.83;;;;;;;6.07;100.00;98264.09;4247403;82;28555;-76
2022/01/06 10:50:35;;;;;;;6.03;2.80;;;;;;;6.03;100.00;98258.91;4190872;82;28555;-74
2022/01/06 10:56:36;;;;;;;5.77;2.93;;;;;;;5.49;100.00;98290.02;4197515;82;28544;-76
2022/01/06 11:02:38;;;;;;;6.58;3.08;;;;;;;5.18;100.00;98293.48;4169486;83;28541;-75
2022/01/06 11:08:41;;;;;;;8.28;3.22;;;;;;;5.24;100.00;98289.98;4202791;83;28505;-75
2022/01/06 11:14:45;;;;;;;8.18;3.00;;;;;;;5.53;100.00;98301.06;4210020;83;28826;-75
2022/01/06 11:20:47;;;;;;;2.83;1.70;;;;;;;5.34;100.00;98310.81;4194840;83;28553;-78
2022/01/06 11:27:04;;;;;;;2.62;1.42;;;;;;;4.69;100.00;98333.36;4206769;83;28512;-82
2022/01/06 11:33:06;;;;;;;5.33;1.60;;;;;;;4.52;100.00;98334.84;4190456;83;28562;-80
2022/01/06 11:39:10;;;;;;;3.92;1.77;;;;;;;4.49;100.00;98345.91;4196645;83;28480;-84
2022/01/06 11:45:18;;;;;;;4.22;1.85;;;;;;;4.59;100.00;98366.27;4169800;83;28558;-74
2022/01/06 11:51:34;;;;;;;4.37;2.00;;;;;;;4.50;100.00;98360.36;4196205;83;28450;-76
2022/01/06 11:57:37;;;;;;;5.05;2.10;;;;;;;4.59;100.00;98362.27;4200810;83;28558;-78
2022/01/06 12:03:47;;;;;;;5.00;2.20;;;;;;;4.82;100.00;98383.11;4218531;83;28523;-76
2022/01/06 12:10:02;;;;;;;4.30;1.80;;;;;;;5.11;100.00;98383.63;4219448;83;28531;-76
2022/01/06 12:16:04;;;;;;;3.95;1.75;;;;;;;4.51;100.00;98411.24;4210671;83;28509;-73
2022/01/06 12:22:11;;;;;;;3.80;1.32;;;;;;;4.46;100.00;98426.50;4201507;82;28526;-73
2022/01/06 12:28:13;;;;;;;2.42;0.93;;;;;;;4.36;100.00;98419.45;4197481;83;28527;-74
2022/01/06 12:34:15;;;;;;;4.70;1.42;;;;;;;3.89;99.53;98429.55;4187833;83;28556;-72
2022/01/06 12:40:16;;;;;;;3.95;1.60;;;;;;;4.19;98.46;98443.00;4215398;82;28626;-73
2022/01/06 12:46:18;;;;;;;3.58;1.30;;;;;;;4.24;99.88;98451.70;4198286;83;28559;-75
2022/01/06 12:52:20;;;;;;;4.00;1.40;;;;;;;4.33;88.77;98461.13;4201050;83;28578;-75
2022/01/06 12:58:33;;;;;;;6.97;1.75;;;;;;;4.42;85.89;98473.17;4193742;83;28622;-74
2022/01/06 13:04:38;;;;;;;3.42;1.60;;;;;;;4.26;85.38;98484.23;4191833;83;28573;-72
2022/01/06 13:10:40;;;;;;;4.97;2.08;;;;;;;4.08;87.68;98514.11;4202251;83;28562;-73
2022/01/06 13:16:41;;;;;;;3.75;1.70;;;;;;;3.72;100.00;98535.47;4188205;83;28514;-73
2022/01/06 13:23:01;;;;;;;3.55;1.80;;;;;;;3.48;100.00;98559.38;4181548;83;28513;-72
2022/01/06 13:28:58;;;;;;;4.80;1.45;;;;;;;3.34;100.00;98567.81;4183449;83;28524;-74
2022/01/06 13:35:09;;;;;;;3.58;1.55;;;;;;;3.03;99.86;98600.40;4195106;83;28570;-74
2022/01/06 13:41:10;;;;;;;4.05;1.70;;;;;;;2.87;96.29;98617.95;4174993;83;28529;-74
2022/01/06 13:47:17;;;;;;;6.12;1.60;;;;;;;3.34;97.38;98609.01;4191192;83;28533;-72
2022/01/06 13:53:42;;;;;;;2.80;1.20;;;;;;;3.16;98.44;98634.72;4188884;83;28548;-72
2022/01/06 13:59:44;;;;;;;3.02;1.10;;;;;;;2.59;83.98;98669.95;4199937;82;28549;-72
2022/01/06 14:05:46;;;;;;;4.65;1.32;;;;;;;2.54;81.60;98675.52;4211145;82;28514;-71
2022/01/06 14:11:48;;;;;;;2.60;1.35;;;;;;;2.49;79.74;98711.41;4209220;82;28522;-74
2022/01/06 14:17:49;;;;;;;2.27;0.80;;;;;;;2.49;71.74;98731.31;4201028;82;28526;-76
2022/01/06 14:23:50;;;;;;;2.20;0.70;;;;;;;2.32;63.61;98767.01;4204164;82;28516;-72
2022/01/06 14:29:52;;;;;;;1.77;0.85;;;;;;;2.20;64.51;98772.78;4199791;82;28539;-74
2022/01/06 14:35:55;;;;;;;2.08;0.98;;;;;;;1.67;64.16;98782.92;4202384;82;28542;-72
2022/01/06 14:41:56;;;;;;;2.40;0.85;;;;;;;1.56;65.48;98803.72;4198198;82;28513;-76
2022/01/06 14:47:59;;;;;;;2.27;0.90;;;;;;;1.35;66.13;98842.28;4215471;82;28514;-76
2022/01/06 14:54:00;;;;;;;3.77;1.05;;;;;;;1.49;68.13;98838.05;4202707;82;28517;-76
2022/01/06 15:00:06;;;;;;;3.52;1.40;;;;;;;1.55;71.30;98853.26;4193538;82;43236;-76
2022/01/06 15:06:07;;;;;;;2.95;1.35;;;;;;;1.65;73.03;98857.82;4193307;83;28557;-77
2022/01/06 15:12:09;;;;;;;4.05;1.47;;;;;;;1.60;75.02;98870.77;4183815;83;28559;-74
2022/01/06 15:18:12;;;;;;;3.42;1.67;;;;;;;1.60;78.12;98861.48;4180152;83;28454;-76
2022/01/06 15:24:13;;;;;;;3.52;1.50;;;;;;;1.60;78.73;98881.36;4186127;83;28539;-74
2022/01/06 15:30:14;;;;;;;3.85;1.50;;;;;;;1.75;80.41;98891.22;4187579;83;43254;-76
2022/01/06 15:36:16;;;;;;;4.58;1.67;;;;;;;1.87;76.77;98905.70;4187205;83;28536;-77
2022/01/06 15:42:17;;;;;;;4.80;1.32;;;;;;;1.89;75.87;98902.36;4187709;83;43237;-75
2022/01/06 15:48:18;;;;;;;3.40;1.35;;;;;;;1.89;75.19;98922.24;4176034;83;28531;-77
2022/01/06 15:54:21;;;;;;;2.95;1.35;;;;;;;1.68;74.39;98928.21;4187181;83;28495;-75
2022/01/06 16:06:23;;;;;;;3.72;1.35;;;;;;;1.95;72.59;98940.11;4215435;82;28518;-74
2022/01/06 16:12:25;;;;;;;3.98;1.60;;;;;;;1.89;74.36;98951.41;4214223;82;28525;-78
2022/01/06 16:18:27;;;;;;;4.58;1.50;;;;;;;1.73;74.80;98955.52;4203400;82;28527;-77
2022/01/06 16:24:28;;;;;;;4.53;1.70;;;;;;;1.84;75.53;98967.04;4148189;84;28555;-79
2022/01/06 16:30:49;;;;;;;5.45;2.02;;;;;;;1.88;77.25;98971.49;4133714;84;43419;-77
2022/01/06 16:36:50;;;;;;;7.45;2.30;;;;;;;1.72;78.13;98985.65;4128956;84;28496;-78
2022/01/06 16:42:52;;;;;;;6.08;2.00;;;;;;;1.80;78.81;99000.19;4155704;85;43412;-78
2022/01/06 16:48:53;;;;;;;6.83;2.20;;;;;;;1.44;92.37;98994.09;4129305;84;28491;-79
2022/01/06 16:54:54;;;;;;;5.58;2.20;;;;;;;1.41;100.00;99007.66;4130484;85;43475;-76
2022/01/06 17:00:55;;;;;;;8.25;2.70;;;;;;;1.61;100.00;99011.55;4112654;84;42650;-75
2022/01/06 17:06:57;;;;;;;6.85;2.67;;;;;;;1.62;100.00;99012.39;4058570;85;28475;-76
2022/01/06 17:12:58;;;;;;;6.67;2.50;;;;;;;1.47;100.00;99006.98;4059834;86;42600;-75
2022/01/06 17:18:59;;;;;;;6.05;2.83;;;;;;;1.34;100.00;99019.45;4065578;85;28516;-76
2022/01/06 17:25:00;;;;;;;5.53;2.10;;;;;;;1.28;100.00;99021.48;4069429;84;43425;-82
2022/01/06 17:31:04;;;;;;;5.40;2.35;;;;;;;1.30;100.00;99021.64;4058736;85;43405;-78
2022/01/06 17:37:06;;;;;;;8.75;2.83;;;;;;;1.39;100.00;99031.70;4077157;85;28524;-75
2022/01/06 17:43:08;;;;;;;7.62;2.27;;;;;;;1.44;100.00;99044.44;4062820;85;28496;-77
2022/01/06 17:49:10;;;;;;;6.35;2.67;;;;;;;1.59;100.00;99065.74;4060474;85;41824;-76
2022/01/06 17:55:11;;;;;;;4.65;2.37;;;;;;;1.49;100.00;99070.75;4083088;85;43467;-78
2022/01/06 18:01:13;;;;;;;4.33;2.10;;;;;;;1.53;100.00;99083.16;4129566;84;43656;-76
2022/01/06 18:07:24;;;;;;;6.03;2.62;;;;;;;1.46;100.00;99089.64;4134210;84;43411;-76
2022/01/06 18:13:17;;;;;;;8.73;2.90;;;;;;;1.44;100.00;99109.35;4132214;84;42815;-76
2022/01/06 18:19:19;;;;;;;8.28;2.72;;;;;;;1.45;100.00;99133.52;4131003;84;28515;-77
2022/01/06 18:25:21;;;;;;;9.83;3.77;;;;;;;0.90;100.00;99128.79;4136875;84;43273;-76
2022/01/06 18:31:23;;;;;;;8.08;3.08;;;;;;;0.77;100.00;99139.05;4139258;84;42741;-76
2022/01/06 18:37:28;;;;;;;7.00;3.30;;;;;;;0.68;100.00;99157.56;4111574;84;28573;-77
2022/01/06 18:43:29;;;;;;;9.90;3.25;;;;;;;0.50;100.00;99151.59;4130562;84;43063;-77
2022/01/06 18:49:30;;;;;;;8.83;3.95;;;;;;;0.60;100.00;99156.74;4129694;84;42718;-78
2022/01/06 18:55:32;;;;;;;9.05;3.50;;;;;;;0.65;100.00;99151.77;4134067;84;42772;-79
2022/01/06 19:01:34;;;;;;;8.48;3.77;;;;;;;0.63;100.00;99165.67;4117859;84;28605;-76
2022/01/06 19:07:35;;;;;;;8.65;3.85;;;;;;;0.68;100.00;99184.55;4128314;84;42710;-75
2022/01/06 19:13:37;;;;;;;9.13;3.35;;;;;;;0.66;100.00;99189.98;4149366;84;42737;-75
2022/01/06 19:19:38;;;;;;;8.63;2.80;;;;;;;0.24;100.00;99204.91;4160988;84;42760;-78
2022/01/06 19:25:39;;;;;;;8.48;3.12;;;;;;;0.36;100.00;99216.05;4166812;84;42745;-77
2022/01/06 19:31:41;;;;;;;9.40;2.72;;;;;;;0.70;100.00;99216.96;4199899;83;42744;-76
2022/01/06 19:37:42;;;;;;;6.28;2.65;;;;;;;0.69;100.00;99238.62;4206306;83;43473;-76
2022/01/06 19:43:46;;;;;;;7.90;2.55;;;;;;;0.97;100.00;99242.31;4208533;83;41876;-77
2022/01/06 19:49:48;;;;;;;6.03;3.20;;;;;;;0.67;100.00;99245.89;4216945;83;41868;-76
2022/01/06 19:55:49;;;;;;;7.97;2.77;;;;;;;0.71;100.00;99261.44;4209737;83;42551;-76
2022/01/06 20:01:51;;;;;;;9.23;2.70;;;;;;;0.59;100.00;99265.72;4223476;82;42727;-76
2022/01/06 20:07:52;;;;;;;7.40;2.55;;;;;;;0.77;100.00;99274.86;4207709;83;41884;-74
2022/01/06 20:13:53;;;;;;;3.22;1.62;;;;;;;0.67;100.00;99276.81;4211155;83;43425;-76
2022/01/06 20:19:55;;;;;;;8.20;1.92;;;;;;;0.29;100.00;99285.61;4213546;83;41872;-77
2022/01/06 20:25:59;;;;;;;6.92;2.37;;;;;;;0.54;100.00;99283.39;4235806;83;43386;-79
2022/01/06 20:32:04;;;;;;;6.17;2.10;;;;;;;0.54;100.00;99287.36;4208161;83;28502;-80
2022/01/06 20:38:05;;;;;;;4.37;1.77;;;;;;;0.73;100.00;99299.16;4212680;83;43437;-79
2022/01/06 20:44:08;;;;;;;6.97;2.45;;;;;;;0.71;100.00;99316.54;4210800;83;42227;-81
2022/01/06 20:56:34;;;;;;;6.77;2.60;;;;;;;0.41;100.00;99333.28;4233651;83;28518;-82
2022/01/06 21:02:35;;;;;;;7.60;3.22;;;;;;;0.69;100.00;99321.17;4213962;82;42629;-76
2022/01/06 21:08:36;;;;;;;8.73;3.12;;;;;;;0.23;100.00;99336.00;4228879;83;42735;-77
2022/01/06 21:14:38;;;;;;;7.80;2.95;;;;;;;0.38;100.00;99335.73;4205635;83;42560;-75
2022/01/06 21:20:39;;;;;;;8.85;2.87;;;;;;;0.52;100.00;99363.42;4200729;83;42716;-82
2022/01/06 21:26:40;;;;;;;10.60;3.47;;;;;;;0.01;100.00;99374.35;4211564;84;43236;-84
2022/01/06 21:32:42;;;;;;;7.40;2.67;;;;;;;0.35;100.00;99385.48;4216953;82;42250;-80
2022/01/06 21:38:43;;;;;;;6.53;2.92;;;;;;;0.10;100.00;99398.55;4209160;82;41986;-78
2022/01/06 21:44:44;;;;;;;7.53;2.92;;;;;;;0.10;100.00;99407.30;4204444;82;41904;-76
2022/01/06 21:50:46;;;;;;;7.47;2.75;;;;;;;-0.53;100.00;99418.31;4204642;83;42597;-80
2022/01/06 21:56:47;;;;;;;6.65;3.00;;;;;;;-0.18;100.00;99421.96;4213281;84;42626;-81
2022/01/06 22:02:50;;;;;;;9.88;2.98;;;;;;;-0.49;100.00;99438.66;4218495;83;42686;-78
2022/01/06 22:08:51;;;;;;;8.80;3.10;;;;;;;-0.54;100.00;99442.26;4272641;83;42716;-79
2022/01/06 22:14:52;;;;;;;11.22;3.87;;;;;;;-0.66;100.00;99449.55;4206627;85;43209;-81
2022/01/06 22:20:55;;;;;;;8.55;3.12;;;;;;;-0.67;100.00;99447.41;4206858;85;42684;-83
2022/01/06 22:26:57;;;;;;;10.98;3.17;;;;;;;-0.70;100.00;99449.00;4206709;83;43268;-80
2022/01/06 22:32:58;;;;;;;9.25;3.30;;;;;;;-0.54;100.00;99452.82;4248191;83;42686;-80
2022/01/06 22:39:00;;;;;;;9.40;3.22;;;;;;;-0.50;100.00;99470.02;4269060;83;42734;-79
2022/01/06 22:45:04;;;;;;;10.23;3.90;;;;;;;-0.37;100.00;99477.59;4268472;83;43221;-78
2022/01/06 22:51:07;;;;;;;10.15;3.70;;;;;;;-0.50;100.00;99493.80;4269057;82;43257;-79
2022/01/06 22:57:09;;;;;;;9.18;3.42;;;;;;;-0.47;100.00;99503.59;4204448;82;42977;-83
2022/01/06 23:03:10;;;;;;;10.82;3.70;;;;;;;-0.69;100.00;99502.16;4190534;84;43213;-80
2022/01/06 23:09:11;;;;;;;8.80;3.52;;;;;;;-0.73;100.00;99511.37;4193997;85;42689;-79
2022/01/06 23:15:15;;;;;;;10.43;3.40;;;;;;;-0.73;100.00;99519.29;4194182;85;43260;-82
2022/01/06 23:21:17;;;;;;;10.80;3.98;;;;;;;-0.83;100.00;99533.02;4194545;85;43248;-79
2022/01/06 23:27:18;;;;;;;9.45;3.52;;;;;;;-0.87;100.00;99540.39;4195217;85;42717;-81
2022/01/06 23:33:21;;;;;;;7.75;3.47;;;;;;;-0.87;100.00;99549.63;4193829;85;42756;-78
2022/01/06 23:39:22;;;;;;;8.18;3.47;;;;;;;-0.94;100.00;99544.58;4192689;85;42693;-76
2022/01/06 23:45:23;;;;;;;9.58;3.95;;;;;;;-0.92;100.00;99558.48;4276557;81;42724;-78
2022/01/06 23:51:25;;;;;;;9.83;3.50;;;;;;;-1.15;100.00;99560.96;4194240;85;42968;-80
2022/01/06 23:57:26;;;;;;;9.68;3.50;;;;;;;-1.16;100.00;99563.73;4218506;84;42735;-75
